createdAt,value
2023-03-26T00:00:59.494Z,3.58
2023-03-26T00:03:33.832Z,3.38
2023-03-26T00:06:24.858Z,4.68
2023-03-26T00:08:56.319Z,3.60
2023-03-26T00:11:25.392Z,3.65
2023-03-26T00:13:52.282Z,4.72
2023-03-26T00:16:22.006Z,4.45
2023-03-26T00:18:58.904Z,4.20
2023-03-26T00:21:46.295Z,3.25
2023-03-26T00:24:13.937Z,3.92
2023-03-26T00:26:49.119Z,3.63
2023-03-26T00:29:16.087Z,3.70
2023-03-26T00:31:42.865Z,3.55
2023-03-26T00:34:20.638Z,3.47
2023-03-26T00:36:58.591Z,3.28
2023-03-26T00:39:47.552Z,3.45
2023-03-26T00:42:17.187Z,3.47
2023-03-26T00:44:49.411Z,3.63
2023-03-26T00:47:16.258Z,3.60
2023-03-26T00:49:42.957Z,3.72
2023-03-26T00:52:15.277Z,4.00
2023-03-26T00:55:00.709Z,3.50
2023-03-26T00:57:35.782Z,3.58
2023-03-26T01:00:07.716Z,3.92
2023-03-26T01:02:39.899Z,4.80
2023-03-26T01:05:34.660Z,4.15
2023-03-26T01:08:18.637Z,4.50
2023-03-26T01:10:46.778Z,3.88
2023-03-26T01:13:23.563Z,3.90
2023-03-26T01:15:51.363Z,3.97
2023-03-26T01:18:22.676Z,3.60
2023-03-26T01:20:51.161Z,4.75
2023-03-26T01:23:24.880Z,3.85
2023-03-26T01:26:02.725Z,4.28
2023-03-26T01:28:35.268Z,4.18
2023-03-26T01:31:24.225Z,4.50
2023-03-26T01:34:18.029Z,4.22
2023-03-26T01:37:09.748Z,4.78
2023-03-26T01:39:46.140Z,4.18
2023-03-26T01:42:22.581Z,4.75
2023-03-26T01:45:20.096Z,4.90
2023-03-26T01:47:51.198Z,6.43
2023-03-26T01:50:17.991Z,4.53
2023-03-26T01:52:47.445Z,5.10
2023-03-26T01:55:14.967Z,5.10
2023-03-26T01:58:20.642Z,5.13
2023-03-26T02:01:05.440Z,6.60
2023-03-26T02:03:53.896Z,6.80
2023-03-26T02:06:32.052Z,9.25
2023-03-26T02:09:11.033Z,9.07
2023-03-26T02:11:40.718Z,10.23
2023-03-26T02:14:13.957Z,11.05
2023-03-26T02:16:40.910Z,11.27
2023-03-26T02:19:14.951Z,10.90
2023-03-26T02:21:42.635Z,12.82
2023-03-26T02:24:14.786Z,12.48
2023-03-26T02:32:10.699Z,12.43
2023-03-26T02:34:38.420Z,13.20
2023-03-26T02:37:10.887Z,12.48
2023-03-26T02:39:42.499Z,13.75
2023-03-26T02:42:11.990Z,13.63
2023-03-26T02:44:38.725Z,12.73
2023-03-26T02:47:11.856Z,13.50
2023-03-26T02:49:40.566Z,13.63
2023-03-26T02:52:16.705Z,13.63
2023-03-26T02:54:46.529Z,12.38
2023-03-26T02:57:23.131Z,12.27
2023-03-26T02:59:58.884Z,13.20
2023-03-26T03:02:31.426Z,13.23
2023-03-26T03:05:08.404Z,14.00
2023-03-26T03:07:36.559Z,14.35
2023-03-26T03:10:03.843Z,14.05
2023-03-26T03:12:31.151Z,15.00
2023-03-26T03:15:13.374Z,14.63
2023-03-26T03:20:21.144Z,15.40
2023-03-26T03:23:00.137Z,13.65
2023-03-26T03:25:42.648Z,14.27
2023-03-26T03:28:21.048Z,16.38
2023-03-26T03:30:56.701Z,14.82
2023-03-26T03:33:35.260Z,14.82
2023-03-26T03:36:03.160Z,14.07
2023-03-26T03:38:41.961Z,14.40
2023-03-26T03:41:28.114Z,14.80
2023-03-26T03:44:04.968Z,15.57
2023-03-26T03:49:26.575Z,13.50
2023-03-26T03:51:56.076Z,15.60
2023-03-26T03:54:27.488Z,14.48
2023-03-26T03:56:54.548Z,15.13
2023-03-26T03:59:21.592Z,16.77
2023-03-26T04:01:49.243Z,16.73
2023-03-26T04:04:16.201Z,17.13
2023-03-26T04:06:46.842Z,16.75
2023-03-26T04:09:15.765Z,19.25
2023-03-26T04:11:52.260Z,17.17
2023-03-26T04:14:27.675Z,17.48
2023-03-26T04:17:09.660Z,17.25
2023-03-26T04:19:42.668Z,17.85
2023-03-26T04:22:15.309Z,17.13
2023-03-26T04:24:42.276Z,16.58
2023-03-26T04:27:21.538Z,16.75
2023-03-26T04:29:51.564Z,16.95
2023-03-26T04:32:32.320Z,17.73
2023-03-26T04:34:59.124Z,17.75
2023-03-26T04:37:46.790Z,16.27
2023-03-26T04:40:24.887Z,17.38
2023-03-26T04:43:11.708Z,16.85
2023-03-26T04:45:38.486Z,16.60
2023-03-26T04:48:18.112Z,16.80
2023-03-26T04:50:56.312Z,17.40
2023-03-26T04:53:39.978Z,17.63
2023-03-26T04:56:44.328Z,17.15
2023-03-26T05:02:48.644Z,18.02
2023-03-26T05:05:16.001Z,17.45
2023-03-26T05:10:26.386Z,17.92
2023-03-26T05:12:58.597Z,18.17
2023-03-26T05:15:34.442Z,18.33
2023-03-26T05:18:03.129Z,17.95
2023-03-26T05:20:37.899Z,17.75
2023-03-26T05:23:07.062Z,16.48
2023-03-26T05:25:40.395Z,17.17
2023-03-26T05:28:13.362Z,17.30
2023-03-26T05:30:54.864Z,16.30
2023-03-26T05:33:30.747Z,16.45
2023-03-26T05:36:08.988Z,15.35
2023-03-26T05:38:40.574Z,15.68
2023-03-26T05:41:09.545Z,15.30
2023-03-26T05:43:40.559Z,14.63
2023-03-26T05:46:08.193Z,14.23
2023-03-26T05:48:43.013Z,14.35
2023-03-26T05:51:09.725Z,14.65
2023-03-26T05:53:36.684Z,16.00
2023-03-26T05:56:13.211Z,14.57
2023-03-26T05:58:39.896Z,15.32
2023-03-26T06:01:12.014Z,15.13
2023-03-26T06:06:17.708Z,13.65
2023-03-26T06:08:48.662Z,15.30
2023-03-26T06:11:35.782Z,14.60
2023-03-26T06:14:02.591Z,12.68
2023-03-26T06:16:29.547Z,10.88
2023-03-26T06:18:58.565Z,11.32
2023-03-26T06:21:29.374Z,12.43
2023-03-26T06:23:57.951Z,13.23
2023-03-26T06:26:24.658Z,12.82
2023-03-26T06:28:59.228Z,12.05
2023-03-26T06:31:27.526Z,10.80
2023-03-26T06:33:54.435Z,11.05
2023-03-26T06:36:21.148Z,11.30
2023-03-26T06:38:47.938Z,11.23
2023-03-26T06:41:27.978Z,11.70
2023-03-26T06:43:57.385Z,13.07
2023-03-26T06:46:33.920Z,13.00
2023-03-26T06:49:00.687Z,11.18
2023-03-26T06:51:32.351Z,9.75
2023-03-26T06:53:59.160Z,8.60
2023-03-26T06:56:34.315Z,10.27
2023-03-26T06:59:02.473Z,5.70
2023-03-26T07:01:45.846Z,6.47
2023-03-26T07:04:20.464Z,6.50
2023-03-26T07:06:57.843Z,4.40
2023-03-26T07:09:27.484Z,4.95
2023-03-26T07:11:54.308Z,4.47
2023-03-26T07:14:37.382Z,4.03
2023-03-26T07:17:15.786Z,8.45
2023-03-26T07:19:48.636Z,10.52
2023-03-26T07:22:22.522Z,8.50
2023-03-26T07:24:53.260Z,7.22
2023-03-26T07:27:44.376Z,5.72
2023-03-26T07:30:47.303Z,5.28
2023-03-26T07:34:13.127Z,7.18
2023-03-26T07:37:23.030Z,9.18
2023-03-26T07:40:05.484Z,10.88
2023-03-26T07:43:04.333Z,12.10
2023-03-26T07:45:36.484Z,12.63
2023-03-26T07:48:03.563Z,13.32
2023-03-26T07:50:30.407Z,13.63
2023-03-26T07:55:30.139Z,13.30
2023-03-26T07:58:18.360Z,14.73
2023-03-26T08:01:02.148Z,14.27
2023-03-26T08:03:37.845Z,15.73
2023-03-26T08:06:44.940Z,13.40
2023-03-26T08:09:31.818Z,13.63
2023-03-26T08:12:23.756Z,13.77
2023-03-26T08:20:50.136Z,10.93
2023-03-26T08:23:50.396Z,11.60
2023-03-26T08:26:45.404Z,12.60
2023-03-26T08:29:23.602Z,12.35
2023-03-26T08:31:54.638Z,13.35
2023-03-26T08:34:21.397Z,14.10
2023-03-26T08:36:54.126Z,12.82
2023-03-26T08:39:28.552Z,12.80
2023-03-26T08:42:13.899Z,12.90
2023-03-26T08:45:17.959Z,11.70
2023-03-26T08:48:24.375Z,11.45
2023-03-26T08:51:03.082Z,12.30
2023-03-26T08:54:09.695Z,10.95
2023-03-26T08:56:43.357Z,11.75
2023-03-26T08:59:52.997Z,12.45
2023-03-26T09:02:55.211Z,11.02
2023-03-26T09:05:46.887Z,10.95
2023-03-26T09:08:54.164Z,10.85
2023-03-26T09:14:46.330Z,9.40
2023-03-26T09:17:22.177Z,7.60
2023-03-26T09:20:16.563Z,4.13
2023-03-26T09:23:16.162Z,4.55
2023-03-26T09:26:10.220Z,3.10
2023-03-26T09:29:21.152Z,4.47
2023-03-26T09:32:11.185Z,5.03
2023-03-26T09:35:04.678Z,6.00
2023-03-26T09:38:00.276Z,6.13
2023-03-26T09:40:42.940Z,6.82
2023-03-26T09:43:35.698Z,7.20
2023-03-26T09:46:29.348Z,7.43
2023-03-26T09:49:15.989Z,6.05
2023-03-26T09:52:02.553Z,6.72
2023-03-26T09:54:49.647Z,7.63
2023-03-26T10:01:01.617Z,5.93
2023-03-26T10:04:09.224Z,6.07
2023-03-26T10:06:41.919Z,5.22
2023-03-26T10:09:36.386Z,5.47
2023-03-26T10:12:34.984Z,5.20
2023-03-26T10:15:36.330Z,4.40
2023-03-26T10:18:38.892Z,4.40
2023-03-26T10:21:10.202Z,3.50
2023-03-26T10:23:37.422Z,3.72
2023-03-26T10:27:09.074Z,3.92
2023-03-26T10:30:14.175Z,3.65
2023-03-26T10:33:25.596Z,4.43
2023-03-26T10:36:39.824Z,3.70
2023-03-26T10:39:42.417Z,3.75
2023-03-26T10:42:47.060Z,3.75
2023-03-26T10:48:53.361Z,3.70
2023-03-26T10:54:54.539Z,3.10
2023-03-26T10:57:48.186Z,3.13
2023-03-26T11:00:26.336Z,3.17
2023-03-26T11:03:34.532Z,3.45
2023-03-26T11:06:27.473Z,3.75
2023-03-26T11:09:21.826Z,3.30
2023-03-26T11:12:28.134Z,3.55
2023-03-26T11:15:14.742Z,2.90
2023-03-26T11:17:59.548Z,3.15
2023-03-26T11:21:19.794Z,2.78
2023-03-26T11:24:10.246Z,3.30
2023-03-26T11:27:15.230Z,3.03
2023-03-26T11:30:38.399Z,3.33
2023-03-26T11:33:10.898Z,2.83
2023-03-26T11:35:44.899Z,2.72
2023-03-26T11:38:39.556Z,3.05
2023-03-26T11:41:34.275Z,2.67
2023-03-26T11:44:08.906Z,2.65
2023-03-26T11:46:45.240Z,2.60
2023-03-26T11:49:18.917Z,2.47
2023-03-26T11:51:57.975Z,2.65
2023-03-26T11:54:42.337Z,2.55
2023-03-26T11:57:32.800Z,3.08
2023-03-26T12:00:32.847Z,3.30
2023-03-26T12:03:02.703Z,3.00
2023-03-26T12:05:29.478Z,2.33
2023-03-26T12:07:57.620Z,2.40
2023-03-26T12:10:34.267Z,2.53
2023-03-26T12:13:06.421Z,2.85
2023-03-26T12:15:33.232Z,2.50
2023-03-26T12:18:26.068Z,2.78
2023-03-26T12:21:19.467Z,2.83
2023-03-26T12:23:59.935Z,2.72
2023-03-26T12:26:52.265Z,2.75
2023-03-26T12:29:19.189Z,2.75
2023-03-26T12:32:27.417Z,2.80
2023-03-26T12:35:08.218Z,3.40
2023-03-26T12:37:43.450Z,2.95
2023-03-26T12:40:25.455Z,2.33
2023-03-26T12:45:46.305Z,2.67
2023-03-26T12:48:44.514Z,2.83
2023-03-26T12:51:53.606Z,2.47
2023-03-26T12:54:51.661Z,2.40
2023-03-26T12:57:39.697Z,2.38
2023-03-26T13:00:43.312Z,2.80
2023-03-26T13:03:31.193Z,2.67
2023-03-26T13:06:12.717Z,2.70
2023-03-26T13:09:15.519Z,2.28
2023-03-26T13:11:53.828Z,2.55
2023-03-26T13:14:33.558Z,2.95
2023-03-26T13:17:21.779Z,2.95
2023-03-26T13:20:27.079Z,2.70
2023-03-26T13:23:08.312Z,2.80
2023-03-26T13:25:40.871Z,2.70
2023-03-26T13:28:18.669Z,2.97
2023-03-26T13:33:40.419Z,2.20
2023-03-26T13:36:51.596Z,2.35
2023-03-26T13:39:38.437Z,2.47
2023-03-26T13:42:19.482Z,3.03
2023-03-26T13:45:11.697Z,2.65
2023-03-26T13:47:46.470Z,2.70
2023-03-26T13:53:33.932Z,2.53
2023-03-26T13:56:04.382Z,2.70
2023-03-26T13:58:48.109Z,2.45
2023-03-26T14:01:34.581Z,2.60
2023-03-26T14:04:35.315Z,2.70
2023-03-26T14:07:50.165Z,2.60
2023-03-26T14:10:28.759Z,2.38
2023-03-26T14:13:13.624Z,2.80
2023-03-26T14:16:02.361Z,2.53
2023-03-26T14:18:55.272Z,2.40
2023-03-26T14:21:38.588Z,2.47
2023-03-26T14:24:28.786Z,2.88
2023-03-26T14:30:49.075Z,2.83
2023-03-26T14:33:42.308Z,2.50
2023-03-26T14:36:16.425Z,2.70
2023-03-26T14:39:17.993Z,3.20
2023-03-26T14:41:52.936Z,3.28
2023-03-26T14:44:53.448Z,2.88
2023-03-26T14:47:26.848Z,2.53
2023-03-26T14:50:21.577Z,2.60
2023-03-26T14:53:08.985Z,2.50
2023-03-26T14:55:56.229Z,2.90
2023-03-26T14:59:06.052Z,2.72
2023-03-26T15:01:59.981Z,2.00
2023-03-26T15:05:19.149Z,2.72
2023-03-26T15:08:35.558Z,2.60
2023-03-26T15:11:14.554Z,2.47
2023-03-26T15:13:59.964Z,2.30
2023-03-26T15:17:05.319Z,2.95
2023-03-26T15:20:11.543Z,2.40
2023-03-26T15:23:05.785Z,2.67
2023-03-26T15:25:47.415Z,2.63
2023-03-26T15:28:36.104Z,2.25
2023-03-26T15:31:28.360Z,2.35
2023-03-26T15:37:15.668Z,2.20
2023-03-26T15:40:19.644Z,2.75
2023-03-26T15:42:58.272Z,2.50
2023-03-26T15:45:33.995Z,3.25
2023-03-26T15:48:11.922Z,3.33
2023-03-26T15:50:56.508Z,3.33
2023-03-26T15:53:47.600Z,2.92
2023-03-26T15:56:31.341Z,2.10
2023-03-26T15:59:37.596Z,2.47
2023-03-26T16:05:32.444Z,3.00
2023-03-26T16:08:20.754Z,2.72
2023-03-26T16:11:03.827Z,2.95
2023-03-26T16:13:42.446Z,3.00
2023-03-26T16:16:14.853Z,2.47
2023-03-26T16:18:46.792Z,2.92
2023-03-26T16:24:19.688Z,2.80
2023-03-26T16:26:52.553Z,3.78
2023-03-26T16:29:28.306Z,2.60
2023-03-26T16:32:13.835Z,3.80
2023-03-26T16:35:25.902Z,3.45
2023-03-26T16:38:15.535Z,3.42
2023-03-26T16:41:15.119Z,3.35
2023-03-26T16:44:30.257Z,3.00
2023-03-26T16:47:25.978Z,3.63
2023-03-26T16:50:08.486Z,3.08
2023-03-26T16:52:53.482Z,3.58
2023-03-26T16:55:49.861Z,3.05
2023-03-26T16:58:56.686Z,3.38
2023-03-26T17:01:45.122Z,3.67
2023-03-26T17:04:26.365Z,2.83
2023-03-26T17:07:38.722Z,3.65
2023-03-26T17:10:29.142Z,3.38
2023-03-26T17:13:00.680Z,3.22
2023-03-26T17:15:30.359Z,2.90
2023-03-26T17:18:21.851Z,4.03
2023-03-26T17:21:15.549Z,4.50
2023-03-26T17:24:23.653Z,3.88
2023-03-26T17:27:24.324Z,3.40
2023-03-26T17:30:25.217Z,3.80
2023-03-26T17:33:17.655Z,3.90
2023-03-26T17:35:55.026Z,3.53
2023-03-26T17:38:27.345Z,3.78
2023-03-26T17:40:59.614Z,3.67
2023-03-26T17:43:50.243Z,4.13
2023-03-26T17:46:48.522Z,4.38
2023-03-26T17:49:21.248Z,4.60
2023-03-26T17:51:57.948Z,5.25
2023-03-26T17:54:36.037Z,5.57
2023-03-26T17:57:17.685Z,5.85
2023-03-26T17:59:49.584Z,5.30
2023-03-26T18:02:21.230Z,6.55
2023-03-26T18:04:51.877Z,9.00
2023-03-26T18:07:55.955Z,3.70
2023-03-26T18:11:15.633Z,3.38
2023-03-26T18:14:13.262Z,3.15
2023-03-26T18:20:02.819Z,2.63
2023-03-26T18:22:30.682Z,2.63
2023-03-26T18:25:00.843Z,2.80
2023-03-26T18:27:43.458Z,2.50
2023-03-26T18:30:21.547Z,2.72
2023-03-26T18:32:53.919Z,3.20
2023-03-26T18:35:24.940Z,3.22
2023-03-26T18:37:56.346Z,2.88
2023-03-26T18:40:32.450Z,2.90
2023-03-26T18:43:00.089Z,3.25
2023-03-26T18:45:44.367Z,2.92
2023-03-26T18:48:24.165Z,3.00
2023-03-26T18:51:06.940Z,3.17
2023-03-26T18:53:46.689Z,3.05
2023-03-26T18:56:43.861Z,3.65
2023-03-26T18:59:35.760Z,3.38
2023-03-26T19:02:14.303Z,3.20
2023-03-26T19:04:46.951Z,3.65
2023-03-26T19:07:25.898Z,3.17
2023-03-26T19:09:57.089Z,3.22
2023-03-26T19:12:29.591Z,2.50
2023-03-26T19:15:28.065Z,2.97
2023-03-26T19:18:05.710Z,2.28
2023-03-26T19:20:44.361Z,2.45
2023-03-26T19:23:26.210Z,2.00
2023-03-26T19:25:56.331Z,1.92
2023-03-26T19:28:39.393Z,2.20
2023-03-26T19:31:15.456Z,2.40
2023-03-26T19:33:44.161Z,2.20
2023-03-26T19:36:24.974Z,2.20
2023-03-26T19:38:54.607Z,3.20
2023-03-26T19:41:55.637Z,3.78
2023-03-26T19:44:39.083Z,2.25
2023-03-26T19:47:13.193Z,2.55
2023-03-26T19:50:02.602Z,3.45
2023-03-26T19:52:40.448Z,2.20
2023-03-26T19:55:29.429Z,2.28
2023-03-26T19:57:58.957Z,2.47
2023-03-26T20:00:31.206Z,2.20
2023-03-26T20:03:00.897Z,2.35
2023-03-26T20:05:42.134Z,1.63
2023-03-26T20:08:19.201Z,1.92
2023-03-26T20:10:48.224Z,1.90
2023-03-26T20:16:06.547Z,1.77
2023-03-26T20:18:34.580Z,1.40
2023-03-26T20:21:01.448Z,1.20
2023-03-26T20:23:29.562Z,1.98
2023-03-26T20:26:00.685Z,1.20
2023-03-26T20:28:28.209Z,1.50
2023-03-26T20:31:02.431Z,1.45
2023-03-26T20:33:33.516Z,1.58
2023-03-26T20:36:03.127Z,1.57
2023-03-26T20:38:39.168Z,1.70
2023-03-26T20:41:12.652Z,1.70
2023-03-26T20:43:39.697Z,2.10
2023-03-26T20:46:23.997Z,2.00
2023-03-26T20:49:11.304Z,1.90
2023-03-26T20:51:47.020Z,2.40
2023-03-26T20:54:17.025Z,2.10
2023-03-26T20:56:54.013Z,2.20
2023-03-26T20:59:27.258Z,2.10
2023-03-26T21:02:00.318Z,2.30
2023-03-26T21:04:28.604Z,2.45
2023-03-26T21:07:18.099Z,2.53
2023-03-26T21:09:50.049Z,2.00
2023-03-26T21:12:28.075Z,2.03
2023-03-26T21:14:56.042Z,2.28
2023-03-26T21:20:08.656Z,2.15
2023-03-26T21:22:38.466Z,1.90
2023-03-26T21:25:21.183Z,1.92
2023-03-26T21:28:16.924Z,2.22
2023-03-26T21:30:48.281Z,2.17
2023-03-26T21:33:14.987Z,2.33
2023-03-26T21:35:59.653Z,2.22
2023-03-26T21:38:29.477Z,2.35
2023-03-26T21:40:59.113Z,2.20
2023-03-26T21:43:30.460Z,2.25
2023-03-26T21:46:13.802Z,2.15
2023-03-26T21:48:47.590Z,2.35
2023-03-26T21:51:18.224Z,2.35
2023-03-26T21:53:51.522Z,2.35
2023-03-26T21:59:57.640Z,3.05
2023-03-26T22:03:01.209Z,2.60
2023-03-26T22:06:15.612Z,2.22
2023-03-26T22:08:46.148Z,2.15
2023-03-26T22:11:34.973Z,2.40
2023-03-26T22:14:22.390Z,2.35
2023-03-26T22:16:55.351Z,1.88
2023-03-26T22:19:23.854Z,2.00
2023-03-26T22:21:50.644Z,2.22
2023-03-26T22:24:20.300Z,2.30
2023-03-26T22:26:51.038Z,2.00
2023-03-26T22:29:19.287Z,2.20
2023-03-26T22:31:50.293Z,2.20
2023-03-26T22:34:29.324Z,2.10
2023-03-26T22:36:56.072Z,2.47
2023-03-26T22:39:25.170Z,2.00
2023-03-26T22:41:52.187Z,2.00
2023-03-26T22:44:20.584Z,2.00
2023-03-26T22:46:53.124Z,1.88
2023-03-26T22:49:22.577Z,2.40
2023-03-26T22:51:50.901Z,2.45
2023-03-26T22:54:26.650Z,2.20
2023-03-26T22:57:02.259Z,2.05
2023-03-26T23:02:19.673Z,2.35
2023-03-26T23:04:46.727Z,2.20
2023-03-26T23:07:16.492Z,2.40
2023-03-26T23:09:43.346Z,2.53
2023-03-26T23:12:15.583Z,2.53
2023-03-26T23:14:42.679Z,2.60
2023-03-26T23:17:19.187Z,2.80
2023-03-26T23:19:46.067Z,2.67
2023-03-26T23:22:20.144Z,2.88
2023-03-26T23:24:46.877Z,3.40
2023-03-26T23:27:13.589Z,3.25
2023-03-26T23:29:44.780Z,3.05
2023-03-26T23:32:29.264Z,3.50
2023-03-26T23:35:05.600Z,3.53
2023-03-26T23:37:34.591Z,3.28
2023-03-26T23:40:01.360Z,3.13
2023-03-26T23:42:36.379Z,2.88
2023-03-26T23:45:10.488Z,2.50
2023-03-26T23:47:46.268Z,2.40
2023-03-26T23:50:15.851Z,2.60
2023-03-26T23:53:03.714Z,2.30
2023-03-26T23:55:37.941Z,2.42
2023-03-26T23:58:04.652Z,2.30
